Sliven, Bulgaria
Current Conditions -  °F | °C
As of 8:00 AM on Sunday 26 Oct 2014 (Local Time) from LBGO Reporting Station
Moderate Snow Moderate Snow  
Wind Chill: 28°   Ceiling: 300
Heat Index: 32°   Visibility: 0.68mi
Dew Point: 32°   Wind: 4mph
Humidity: 100%   Direction: 280°W
Pressure: 30.39"   Gusts: NA
Location:  42.68°N, 26.32°E
Report Text: LBGO 260500Z 28002MPS 1100 R09/P1500N R27/P1500N SN OVC003 00/00 Q1029 TEMPO 0800 +SN OVC002 R99/599291
Loading
Personal Weather Stations






























Interactive Weather Map
Tropical Storm Tracking
New forecast layout! Learn more

10-Day Weather Forecast

Advertisements
Track Severe Weather on mobile